Time;durP1;ratioP1;P1;durP2;ratioP2;P2;SDS_P1;SDS_P2;PMS_P1;PMS_P2;Temp;Humidity;BMP_temperature;BMP_pressure;BME280_temperature;BME280_humidity;BME280_pressure;Samples;Min_cycle;Max_cycle;Signal;HPM_P1;HPM_P2
2023/05/06 00:00:21;;;;;;;5.93;4.35;;;19.80;75.60;;;;;;10714427;33;20476;-75
2023/05/06 00:06:23;;;;;;;5.15;3.28;;;19.70;75.60;;;;;;10716483;33;20044;-74
2023/05/06 00:12:26;;;;;;;6.32;3.80;;;19.70;75.70;;;;;;10717510;33;20026;-74
2023/05/06 00:18:28;;;;;;;8.10;4.93;;;19.60;76.00;;;;;;10716637;33;20039;-74
2023/05/06 00:24:30;;;;;;;6.80;4.85;;;19.60;76.20;;;;;;10713971;33;20039;-74
2023/05/06 00:30:32;;;;;;;7.20;5.07;;;19.60;76.70;;;;;;10716260;33;20059;-74
2023/05/06 00:36:35;;;;;;;6.22;4.40;;;19.60;76.30;;;;;;10714191;33;20406;-74
2023/05/06 00:42:37;;;;;;;7.18;4.57;;;19.50;76.40;;;;;;10713329;33;20021;-74
2023/05/06 00:48:39;;;;;;;6.68;4.12;;;19.30;76.50;;;;;;10716442;33;20021;-74
2023/05/06 00:54:43;;;;;;;9.32;5.80;;;19.30;76.30;;;;;;10714564;33;20040;-74
2023/05/06 01:00:48;;;;;;;7.22;5.75;;;19.30;76.60;;;;;;10714798;33;20021;-74
2023/05/06 01:07:00;;;;;;;8.23;6.55;;;19.30;76.40;;;;;;10716001;33;20021;-74
2023/05/06 01:13:16;;;;;;;9.63;5.45;;;19.30;76.40;;;;;;10715808;33;20024;-74
2023/05/06 01:19:35;;;;;;;6.35;4.95;;;19.20;77.20;;;;;;10713952;33;20024;-74
2023/05/06 01:25:37;;;;;;;13.70;4.97;;;19.20;77.20;;;;;;10713493;33;20037;-74
2023/05/06 01:31:47;;;;;;;7.15;4.62;;;19.10;77.10;;;;;;10719044;33;20029;-74
2023/05/06 01:38:03;;;;;;;8.88;5.20;;;19.00;76.80;;;;;;10721592;33;20036;-74
2023/05/06 01:44:07;;;;;;;6.97;4.50;;;18.90;77.00;;;;;;10721064;33;20025;-74
2023/05/06 01:50:10;;;;;;;7.25;4.85;;;18.80;77.10;;;;;;10720761;33;20363;-74
2023/05/06 01:56:12;;;;;;;5.60;4.22;;;18.70;77.10;;;;;;10719514;33;20047;-74
2023/05/06 02:02:14;;;;;;;5.90;4.07;;;18.70;77.20;;;;;;10721173;33;20041;-74
2023/05/06 02:08:16;;;;;;;6.35;4.47;;;18.70;77.10;;;;;;10718358;33;20379;-74
2023/05/06 02:14:19;;;;;;;8.90;5.75;;;18.70;77.10;;;;;;10720832;33;20461;-74
2023/05/06 02:20:21;;;;;;;5.70;3.85;;;18.60;77.20;;;;;;10720533;33;20057;-74
2023/05/06 02:26:23;;;;;;;9.10;6.22;;;18.70;77.50;;;;;;10719239;33;20067;-74
2023/05/06 02:32:25;;;;;;;8.27;5.07;;;18.60;77.90;;;;;;10715773;33;20048;-74
2023/05/06 02:38:28;;;;;;;6.78;5.03;;;18.60;77.90;;;;;;10718764;33;20024;-74
2023/05/06 02:44:30;;;;;;;8.77;6.22;;;18.50;78.00;;;;;;10716177;33;20072;-74
2023/05/06 02:50:35;;;;;;;7.95;5.80;;;18.50;77.90;;;;;;10719387;33;20036;-74
2023/05/06 02:56:37;;;;;;;7.07;4.93;;;18.50;77.90;;;;;;10719558;33;20021;-74
2023/05/06 03:02:39;;;;;;;8.65;5.47;;;18.30;78.00;;;;;;10718640;33;20021;-74
2023/05/06 03:08:41;;;;;;;7.40;4.50;;;18.20;78.00;;;;;;10718926;33;20056;-74
2023/05/06 03:14:43;;;;;;;8.68;6.32;;;18.20;78.10;;;;;;10714452;33;20355;-74
2023/05/06 03:20:48;;;;;;;9.25;6.40;;;18.10;78.40;;;;;;10718123;33;20026;-74
2023/05/06 03:26:50;;;;;;;8.10;5.87;;;18.10;78.40;;;;;;10718754;33;20339;-74
2023/05/06 03:32:55;;;;;;;8.93;7.25;;;18.10;78.50;;;;;;10717964;33;20029;-75
2023/05/06 03:38:57;;;;;;;6.47;4.57;;;18.10;78.60;;;;;;10714047;33;20036;-74
2023/05/06 03:45:01;;;;;;;9.15;6.93;;;18.00;78.50;;;;;;10701643;33;20411;-75
2023/05/06 03:51:05;;;;;;;12.65;7.72;;;17.90;78.50;;;;;;10714567;33;20055;-75
2023/05/06 03:57:07;;;;;;;12.13;10.18;;;17.90;78.50;;;;;;10715235;33;20033;-75
2023/05/06 04:03:10;;;;;;;8.65;5.93;;;17.90;78.50;;;;;;10715255;33;20055;-74
2023/05/06 04:09:32;;;;;;;9.55;7.22;;;18.00;78.20;;;;;;10716717;33;20063;-75
2023/05/06 04:16:04;;;;;;;9.88;7.12;;;18.00;78.10;;;;;;10714371;33;20040;-75
2023/05/06 04:22:06;;;;;;;13.50;7.68;;;17.90;78.10;;;;;;10726836;33;20099;-74
2023/05/06 04:28:11;;;;;;;7.28;5.35;;;17.90;78.50;;;;;;10712307;33;20056;-75
2023/05/06 04:34:15;;;;;;;16.45;6.85;;;17.80;78.50;;;;;;10711964;33;20032;-75
2023/05/06 04:40:18;;;;;;;8.38;5.43;;;17.80;78.60;;;;;;10713549;33;20032;-74
2023/05/06 04:46:22;;;;;;;10.20;7.30;;;17.80;78.70;;;;;;10709950;33;20406;-74
2023/05/06 04:52:25;;;;;;;9.25;6.95;;;17.90;79.00;;;;;;10710877;33;20067;-75
2023/05/06 04:58:27;;;;;;;10.07;8.00;;;17.90;79.40;;;;;;10715064;33;20051;-75
2023/05/06 05:04:30;;;;;;;9.02;7.12;;;17.90;79.30;;;;;;10715396;33;20051;-75
2023/05/06 05:10:32;;;;;;;10.60;8.25;;;18.00;79.20;;;;;;10715891;33;20025;-74
2023/05/06 05:16:34;;;;;;;10.02;7.80;;;18.00;79.30;;;;;;10713688;33;20029;-74
2023/05/06 05:22:37;;;;;;;11.27;7.87;;;18.10;79.50;;;;;;10711730;33;20059;-75
2023/05/06 05:28:39;;;;;;;9.82;8.45;;;18.30;79.40;;;;;;10711871;33;20059;-75
2023/05/06 05:34:41;;;;;;;14.23;9.88;;;18.30;79.40;;;;;;10710578;33;20379;-75
2023/05/06 05:40:44;;;;;;;15.32;9.75;;;18.40;79.60;;;;;;10715128;33;20021;-75
2023/05/06 05:46:47;;;;;;;9.70;7.25;;;18.50;79.60;;;;;;10711098;33;20017;-74
2023/05/06 05:52:50;;;;;;;14.73;11.35;;;18.60;79.70;;;;;;10710854;33;20040;-75
2023/05/06 05:58:53;;;;;;;10.15;7.80;;;18.70;79.60;;;;;;10710662;33;20021;-74
2023/05/06 06:04:56;;;;;;;14.05;12.15;;;18.80;79.50;;;;;;10710795;33;20047;-76
2023/05/06 06:11:20;;;;;;;14.82;9.15;;;18.80;79.30;;;;;;10708552;33;20041;-74
2023/05/06 06:17:22;;;;;;;11.43;8.57;;;18.90;79.30;;;;;;10715336;32;20044;-74
2023/05/06 06:23:25;;;;;;;13.27;9.95;;;19.00;79.10;;;;;;10715138;33;20434;-75
2023/05/06 06:29:28;;;;;;;15.02;11.98;;;19.10;79.10;;;;;;10720172;33;20033;-74
2023/05/06 06:36:07;;;;;;;14.05;10.98;;;19.10;79.20;;;;;;10642089;33;20061;-74
2023/05/06 06:42:10;;;;;;;17.83;12.85;;;19.10;79.00;;;;;;10642726;33;20021;-74
2023/05/06 06:48:45;;;;;;;18.83;10.75;;;19.20;79.10;;;;;;10640161;33;20048;-74
2023/05/06 06:54:47;;;;;;;21.58;16.20;;;19.30;79.00;;;;;;10642342;33;20060;-76
2023/05/06 07:00:49;;;;;;;16.30;12.80;;;19.40;78.90;;;;;;10643590;33;20026;-74
2023/05/06 07:06:55;;;;;;;14.63;9.38;;;19.40;79.10;;;;;;10640600;33;20055;-74
2023/05/06 07:12:58;;;;;;;15.30;11.18;;;19.50;78.80;;;;;;10661517;33;20041;-74
2023/05/06 07:19:04;;;;;;;14.45;10.32;;;19.50;78.70;;;;;;10678463;33;20049;-74
2023/05/06 07:25:06;;;;;;;14.40;9.95;;;19.70;78.20;;;;;;10677615;33;20017;-74
2023/05/06 07:31:08;;;;;;;15.80;11.85;;;19.80;78.00;;;;;;10676838;33;20021;-74
2023/05/06 07:37:10;;;;;;;15.27;12.35;;;19.80;77.70;;;;;;10677430;33;20033;-75
2023/05/06 07:43:31;;;;;;;17.33;12.73;;;19.90;77.70;;;;;;10676595;33;20022;-74
2023/05/06 07:49:33;;;;;;;16.37;10.93;;;20.00;77.30;;;;;;10680082;27;20334;-75
2023/05/06 07:55:39;;;;;;;14.27;10.63;;;20.10;77.30;;;;;;10640323;33;20059;-74
2023/05/06 08:01:41;;;;;;;15.27;11.70;;;20.20;77.00;;;;;;10641949;33;20052;-74
2023/05/06 08:07:43;;;;;;;15.52;12.37;;;20.30;76.80;;;;;;10658745;33;20037;-74
2023/05/06 08:14:13;;;;;;;15.70;12.85;;;20.40;76.20;;;;;;10713408;33;20504;-74
2023/05/06 08:20:15;;;;;;;17.60;13.55;;;20.50;76.00;;;;;;10691901;33;20414;-75
2023/05/06 08:26:21;;;;;;;12.95;11.02;;;20.70;75.50;;;;;;10712107;33;20029;-74
2023/05/06 08:32:26;;;;;;;13.00;9.77;;;20.80;74.90;;;;;;10716989;33;20055;-74
2023/05/06 08:38:33;;;;;;;;;;;20.80;74.70;;;;;;10715908;33;20033;-75
2023/05/06 08:44:35;;;;;;;20.95;16.30;;;21.00;74.20;;;;;;10717296;33;20234;-75
2023/05/06 08:50:42;;;;;;;14.25;10.77;;;21.10;73.80;;;;;;10715104;33;20410;-74
2023/05/06 08:56:51;;;;;;;17.12;15.32;;;21.30;73.60;;;;;;10716840;33;20052;-74
2023/05/06 09:02:55;;;;;;;17.37;12.65;;;21.50;73.30;;;;;;10714295;33;20013;-75
2023/05/06 09:08:59;;;;;;;16.95;11.00;;;21.60;73.80;;;;;;10713822;33;20323;-75
2023/05/06 09:15:14;;;;;;;9.30;7.15;;;21.60;73.40;;;;;;10701764;33;20037;-74
2023/05/06 09:21:16;;;;;;;6.95;4.93;;;21.80;72.70;;;;;;10698382;33;20029;-75
2023/05/06 09:27:21;;;;;;;11.77;8.55;;;21.90;72.20;;;;;;10711896;33;20433;-75
2023/05/06 09:33:27;;;;;;;7.72;5.60;;;22.10;71.20;;;;;;10711798;33;20048;-74
2023/05/06 09:39:33;;;;;;;13.47;8.23;;;22.20;70.80;;;;;;10711623;33;20044;-74
2023/05/06 09:45:35;;;;;;;8.20;5.15;;;22.40;70.80;;;;;;10702553;33;20365;-75
2023/05/06 09:51:38;;;;;;;10.18;5.22;;;22.60;70.00;;;;;;10705917;33;20028;-75
2023/05/06 09:57:43;;;;;;;9.77;5.07;;;22.70;68.90;;;;;;10721535;33;20030;-74
2023/05/06 10:03:46;;;;;;;7.18;5.32;;;22.80;68.90;;;;;;10721840;33;20091;-77
2023/05/06 10:09:52;;;;;;;7.22;4.45;;;22.90;67.30;;;;;;10721200;33;20059;-74
2023/05/06 10:16:00;;;;;;;6.70;3.28;;;23.10;67.10;;;;;;10645144;33;20041;-75
2023/05/06 10:28:45;;;;;;;3.65;2.67;;;23.40;65.90;;;;;;10755979;33;19946;-74
2023/05/06 10:35:07;;;;;;;7.40;5.12;;;23.60;64.90;;;;;;10758594;33;20351;-75
2023/05/06 10:41:12;;;;;;;9.60;4.45;;;23.70;63.50;;;;;;10754806;33;20051;-75
2023/05/06 10:47:15;;;;;;;5.72;3.42;;;23.80;63.60;;;;;;10646154;33;20040;-74
2023/05/06 10:53:51;;;;;;;4.62;2.97;;;24.00;62.80;;;;;;10642125;33;20029;-72
2023/05/06 10:59:56;;;;;;;5.45;2.90;;;24.20;62.30;;;;;;10711464;33;20040;-73
2023/05/06 11:06:02;;;;;;;5.05;4.03;;;24.50;61.40;;;;;;10716420;33;20187;-72
2023/05/06 11:12:07;;;;;;;4.37;3.00;;;24.80;60.40;;;;;;10705118;33;20040;-72
2023/05/06 11:18:38;;;;;;;4.75;2.53;;;25.10;60.00;;;;;;10718689;33;20048;-73
2023/05/06 11:24:43;;;;;;;6.10;3.50;;;25.30;58.90;;;;;;10713968;33;20047;-73
2023/05/06 11:31:15;;;;;;;6.03;3.70;;;25.30;58.30;;;;;;10702315;33;20032;-74
2023/05/06 11:37:28;;;;;;;3.22;2.05;;;25.50;58.10;;;;;;10704584;33;20037;-74
2023/05/06 11:43:32;;;;;;;16.95;3.78;;;25.60;57.60;;;;;;10718519;33;20079;-74
2023/05/06 11:49:41;;;;;;;4.45;2.60;;;25.80;56.80;;;;;;10715360;33;20029;-73
2023/05/06 11:55:45;;;;;;;5.47;2.58;;;25.60;57.30;;;;;;10715742;33;20051;-74
2023/05/06 12:02:17;;;;;;;4.18;3.05;;;25.90;56.70;;;;;;10718028;33;20384;-73
2023/05/06 12:08:23;;;;;;;5.90;3.62;;;26.10;56.10;;;;;;10717795;33;20017;-73
2023/05/06 12:14:25;;;;;;;4.47;3.15;;;26.00;55.40;;;;;;10716662;33;20044;-73
2023/05/06 12:20:30;;;;;;;4.95;3.20;;;25.90;55.50;;;;;;10703517;32;20182;-73
2023/05/06 12:26:46;;;;;;;13.50;2.97;;;26.10;55.50;;;;;;10715006;33;20052;-74
2023/05/06 12:32:57;;;;;;;4.57;3.00;;;26.20;55.20;;;;;;10713918;33;20063;-72
2023/05/06 12:39:00;;;;;;;5.70;3.78;;;26.20;54.70;;;;;;10715488;33;20021;-73
2023/05/06 12:45:15;;;;;;;5.55;2.75;;;26.10;54.90;;;;;;10712078;33;20048;-73
2023/05/06 12:51:21;;;;;;;5.82;3.47;;;25.90;54.80;;;;;;10701854;32;20036;-73
2023/05/06 12:57:25;;;;;;;6.93;5.00;;;25.90;55.60;;;;;;10713986;32;20025;-73
2023/05/06 13:03:27;;;;;;;5.05;3.33;;;26.00;55.00;;;;;;10713299;33;20033;-73
2023/05/06 13:09:30;;;;;;;9.55;6.25;;;26.10;54.80;;;;;;10711837;33;20024;-73
2023/05/06 13:15:33;;;;;;;5.43;3.75;;;26.20;57.00;;;;;;10714800;33;20515;-72
2023/05/06 13:21:37;;;;;;;7.07;4.68;;;26.10;55.30;;;;;;10701495;33;20025;-72
2023/05/06 13:27:39;;;;;;;5.43;3.92;;;26.10;55.30;;;;;;10711956;32;20033;-73
2023/05/06 13:33:41;;;;;;;6.25;3.87;;;26.00;55.00;;;;;;10694775;32;20308;-72
2023/05/06 13:39:46;;;;;;;5.82;3.12;;;26.00;54.90;;;;;;10710834;33;20055;-73
2023/05/06 13:45:55;;;;;;;4.07;2.53;;;26.00;55.30;;;;;;10705851;32;20059;-73
2023/05/06 13:51:58;;;;;;;7.05;3.70;;;26.00;55.10;;;;;;10710589;33;20028;-73
2023/05/06 13:58:01;;;;;;;5.18;4.00;;;26.10;54.70;;;;;;10697122;33;20055;-73
2023/05/06 14:04:04;;;;;;;7.12;3.45;;;26.10;56.90;;;;;;10709221;33;20453;-73
2023/05/06 14:10:08;;;;;;;4.05;3.37;;;26.10;56.70;;;;;;10713106;33;20048;-73
2023/05/06 14:16:10;;;;;;;6.30;2.58;;;26.20;57.20;;;;;;10713107;33;20044;-73
2023/05/06 14:22:13;;;;;;;5.78;2.53;;;26.10;56.50;;;;;;10712756;33;20025;-72
2023/05/06 14:28:16;;;;;;;7.78;5.75;;;26.10;56.70;;;;;;10700667;33;20033;-73
2023/05/06 14:34:41;;;;;;;4.28;3.10;;;26.20;57.70;;;;;;10713624;33;20176;-73
2023/05/06 14:40:44;;;;;;;6.65;4.22;;;26.10;57.40;;;;;;10718821;33;20052;-72
2023/05/06 14:46:46;;;;;;;4.43;3.00;;;26.10;57.70;;;;;;10717460;33;20025;-72
2023/05/06 14:52:48;;;;;;;6.15;3.45;;;26.10;56.90;;;;;;10717557;33;20355;-73
2023/05/06 14:58:50;;;;;;;3.67;2.67;;;26.20;56.20;;;;;;10703549;33;20021;-73
2023/05/06 15:04:52;;;;;;;3.90;3.05;;;26.30;55.50;;;;;;10732343;33;20064;-72
2023/05/06 15:10:54;;;;;;;5.12;3.08;;;26.30;55.60;;;;;;10752283;33;20361;-75
2023/05/06 15:17:28;;;;;;;4.37;2.85;;;26.30;55.80;;;;;;10736790;33;20063;-75
2023/05/06 15:23:32;;;;;;;3.70;2.55;;;26.20;55.50;;;;;;10749850;33;20351;-75
2023/05/06 15:29:36;;;;;;;4.95;3.05;;;25.90;56.00;;;;;;10753669;33;20024;-76
2023/05/06 15:35:39;;;;;;;4.45;2.72;;;25.90;55.80;;;;;;10750869;33;20024;-75
2023/05/06 15:41:41;;;;;;;6.87;3.55;;;25.70;55.70;;;;;;10750572;33;20061;-75
2023/05/06 15:47:44;;;;;;;4.18;3.03;;;25.60;56.10;;;;;;10750105;33;20399;-75
2023/05/06 15:53:47;;;;;;;5.18;3.55;;;25.60;56.10;;;;;;10531715;27;7093816;-75
2023/05/06 15:59:49;;;;;;;3.12;2.35;;;25.50;56.30;;;;;;10731653;33;20419;-76
2023/05/06 16:05:56;;;;;;;2.95;2.17;;;25.40;56.60;;;;;;10713027;33;20021;-75
2023/05/06 16:11:58;;;;;;;4.15;2.50;;;25.30;56.90;;;;;;10716268;33;20025;-75
2023/05/06 16:18:01;;;;;;;4.50;3.45;;;25.40;56.50;;;;;;10716113;33;20020;-76
2023/05/06 16:24:03;;;;;;;3.78;2.72;;;25.30;56.50;;;;;;10714507;33;20139;-75
2023/05/06 16:30:07;;;;;;;4.10;2.40;;;25.30;56.50;;;;;;10713630;33;20044;-75
2023/05/06 16:36:10;;;;;;;3.97;2.58;;;25.30;56.90;;;;;;10702308;33;20048;-75
2023/05/06 16:42:12;;;;;;;2.90;1.83;;;25.30;57.10;;;;;;10716668;33;20013;-75
2023/05/06 16:48:15;;;;;;;5.20;2.58;;;25.20;57.50;;;;;;10700257;33;20048;-75
2023/05/06 16:54:17;;;;;;;3.37;2.65;;;25.10;57.40;;;;;;10715434;33;20282;-75
2023/05/06 17:00:19;;;;;;;3.78;2.60;;;24.90;57.70;;;;;;10715017;33;20022;-75
2023/05/06 17:06:26;;;;;;;5.62;3.30;;;24.80;58.00;;;;;;10712401;33;20053;-75
2023/05/06 17:12:28;;;;;;;3.22;1.92;;;24.80;57.80;;;;;;10699150;33;20450;-75
2023/05/06 17:18:31;;;;;;;2.75;2.30;;;24.70;57.70;;;;;;10749800;33;20047;-75
2023/05/06 17:24:36;;;;;;;4.78;2.70;;;24.70;58.10;;;;;;10751551;33;20078;-75
2023/05/06 17:30:38;;;;;;;3.60;2.35;;;24.70;58.00;;;;;;10747972;33;20059;-75
2023/05/06 17:36:40;;;;;;;3.40;2.35;;;24.60;57.80;;;;;;10751261;33;20021;-76
2023/05/06 17:42:42;;;;;;;4.53;2.70;;;24.50;58.50;;;;;;10750146;33;20024;-75
2023/05/06 17:48:44;;;;;;;3.37;2.78;;;24.30;58.70;;;;;;10750866;33;20021;-76
2023/05/06 17:54:51;;;;;;;3.30;2.10;;;24.10;59.40;;;;;;10733135;33;20059;-75
2023/05/06 18:00:54;;;;;;;5.80;3.03;;;24.10;59.90;;;;;;10737232;33;20476;-76
2023/05/06 18:06:56;;;;;;;4.72;3.37;;;24.00;61.00;;;;;;10750649;33;20338;-75
2023/05/06 18:12:58;;;;;;;6.55;3.87;;;23.90;61.90;;;;;;10754378;33;20052;-76
2023/05/06 18:19:03;;;;;;;8.95;3.33;;;23.80;62.30;;;;;;10755402;33;20016;-75
2023/05/06 18:25:06;;;;;;;15.43;3.95;;;23.80;63.00;;;;;;10756888;33;20433;-76
2023/05/06 18:31:08;;;;;;;5.07;3.53;;;23.70;63.20;;;;;;10756785;33;20017;-76
2023/05/06 18:37:11;;;;;;;4.25;2.67;;;23.60;63.50;;;;;;10754451;33;20021;-75
2023/05/06 18:43:13;;;;;;;5.50;2.85;;;23.60;63.60;;;;;;10742497;33;20335;-75
2023/05/06 18:49:15;;;;;;;5.90;4.20;;;23.50;64.30;;;;;;10756197;33;20017;-75
2023/05/06 18:55:17;;;;;;;4.32;2.53;;;23.30;66.90;;;;;;10752836;33;20043;-76
2023/05/06 19:01:19;;;;;;;4.43;2.97;;;23.00;68.40;;;;;;10753061;33;20025;-76
2023/05/06 19:07:22;;;;;;;6.47;2.62;;;23.10;68.30;;;;;;10801591;32;20036;-75
2023/05/06 19:13:24;;;;;;;4.47;2.78;;;23.00;69.00;;;;;;10805927;32;20056;-75
2023/05/06 19:19:26;;;;;;;2.78;2.28;;;22.80;70.20;;;;;;10756211;33;20017;-75
2023/05/06 19:25:29;;;;;;;4.70;2.67;;;22.80;70.20;;;;;;10803009;32;20036;-75
2023/05/06 19:31:31;;;;;;;4.30;2.58;;;22.80;70.60;;;;;;10907965;32;20041;-75
2023/05/06 19:37:34;;;;;;;4.97;2.62;;;22.70;71.00;;;;;;10907812;32;20295;-75
2023/05/06 19:43:42;;;;;;;5.78;2.08;;;22.70;70.80;;;;;;10891135;32;20044;-75
2023/05/06 19:49:45;;;;;;;2.77;2.00;;;22.70;71.30;;;;;;10905385;32;20062;-75
2023/05/06 19:55:47;;;;;;;2.83;1.95;;;22.60;71.10;;;;;;10907165;32;20018;-75
2023/05/06 20:01:52;;;;;;;3.28;2.10;;;22.60;71.30;;;;;;10879078;32;20031;-75
2023/05/06 20:08:00;;;;;;;4.20;2.10;;;22.60;71.20;;;;;;10906564;32;20421;-75
2023/05/06 20:14:04;;;;;;;7.97;3.15;;;22.50;71.30;;;;;;10905545;32;20023;-75
2023/05/06 20:20:10;;;;;;;4.78;2.35;;;22.40;71.20;;;;;;10893306;32;20042;-75
2023/05/06 20:26:12;;;;;;;2.92;2.30;;;22.30;71.40;;;;;;10891617;32;20028;-75
2023/05/06 20:32:23;;;;;;;4.62;2.80;;;22.30;71.60;;;;;;10905463;32;20062;-75
2023/05/06 20:38:26;;;;;;;4.55;2.70;;;22.20;71.90;;;;;;10903247;32;20053;-75
2023/05/06 20:44:30;;;;;;;3.97;1.98;;;22.20;72.60;;;;;;10905413;32;20313;-75
2023/05/06 20:50:35;;;;;;;4.60;2.53;;;22.10;73.10;;;;;;10902556;32;20031;-75
2023/05/06 20:56:44;;;;;;;3.67;2.33;;;22.00;73.60;;;;;;10901852;32;20027;-76
2023/05/06 21:02:46;;;;;;;3.85;2.45;;;22.00;74.00;;;;;;10904297;32;20019;-75
2023/05/06 21:08:53;;;;;;;4.07;2.47;;;21.90;74.30;;;;;;10890469;32;20065;-75
2023/05/06 21:14:58;;;;;;;5.30;2.67;;;21.90;74.70;;;;;;10905017;32;20053;-75
2023/05/06 21:21:14;;;;;;;3.67;2.47;;;21.90;74.50;;;;;;10901875;32;20062;-75
2023/05/06 21:27:17;;;;;;;3.33;2.53;;;21.80;74.30;;;;;;10903670;32;20034;-75
2023/05/06 21:33:19;;;;;;;5.35;3.33;;;21.80;74.30;;;;;;10901590;32;20024;-75
2023/05/06 21:39:56;;;;;;;5.30;2.67;;;21.80;74.30;;;;;;10886996;32;20027;-75
2023/05/06 21:45:58;;;;;;;4.82;3.28;;;21.80;74.40;;;;;;10908218;32;20011;-75
2023/05/06 21:52:00;;;;;;;5.00;3.45;;;21.70;74.80;;;;;;10911133;32;20058;-75
2023/05/06 21:58:02;;;;;;;5.28;3.35;;;21.70;74.70;;;;;;10911812;32;20015;-75
2023/05/06 22:04:09;;;;;;;5.93;4.00;;;21.50;74.60;;;;;;10897638;32;20069;-75
2023/05/06 22:10:12;;;;;;;4.90;3.62;;;21.40;74.80;;;;;;10910275;32;20027;-75
2023/05/06 22:16:14;;;;;;;5.40;3.45;;;21.40;75.10;;;;;;10911418;32;20473;-75
2023/05/06 22:22:30;;;;;;;5.40;3.90;;;21.30;75.20;;;;;;10895021;32;20089;-75
2023/05/06 22:28:32;;;;;;;4.35;2.92;;;21.30;74.90;;;;;;10909809;32;20038;-75
2023/05/06 22:34:39;;;;;;;5.82;3.45;;;21.10;75.10;;;;;;10911157;32;20015;-75
2023/05/06 22:40:41;;;;;;;5.20;3.62;;;21.10;75.30;;;;;;10907887;32;20041;-75
2023/05/06 22:46:56;;;;;;;6.18;4.03;;;21.10;75.20;;;;;;10910730;32;20015;-75
2023/05/06 22:52:58;;;;;;;5.30;3.55;;;21.00;75.30;;;;;;10892630;32;20028;-75
2023/05/06 22:59:00;;;;;;;6.30;3.85;;;21.00;75.00;;;;;;10909814;32;20091;-75
2023/05/06 23:05:02;;;;;;;5.53;4.07;;;20.90;75.20;;;;;;10908886;32;20015;-75
2023/05/06 23:11:05;;;;;;;7.57;5.18;;;20.90;75.20;;;;;;10909365;32;20074;-75
2023/05/06 23:17:12;;;;;;;6.07;4.45;;;20.90;75.20;;;;;;10907667;32;20019;-76
2023/05/06 23:23:30;;;;;;;6.25;4.18;;;20.80;75.20;;;;;;10907845;32;20070;-75
2023/05/06 23:29:33;;;;;;;7.32;4.55;;;20.80;75.20;;;;;;10905026;32;20032;-75
2023/05/06 23:35:35;;;;;;;6.55;4.65;;;20.70;75.40;;;;;;10908297;32;20046;-75
2023/05/06 23:41:37;;;;;;;7.70;4.82;;;20.70;75.50;;;;;;10904503;32;20027;-75
2023/05/06 23:47:39;;;;;;;7.85;5.65;;;20.70;76.10;;;;;;10904707;32;20314;-75
2023/05/06 23:53:41;;;;;;;8.52;5.55;;;20.70;76.00;;;;;;10907813;27;20031;-75
2023/05/06 23:59:44;;;;;;;8.63;5.22;;;20.60;75.90;;;;;;10907759;32;20050;-75
